Time;durP1;ratioP1;P1;durP2;ratioP2;P2;SDS_P1;SDS_P2;PMS_P1;PMS_P2;Temp;Humidity;BMP_temperature;BMP_pressure;BME280_temperature;BME280_humidity;BME280_pressure;Samples;Min_cycle;Max_cycle;Signal;HPM_P1;HPM_P2
2024/03/18 00:01:54;;;;;;;6.03;5.50;;;;;;;10.67;100.00;101533.31;5089780;28;20073;-39
2024/03/18 00:04:20;;;;;;;5.55;5.05;;;;;;;10.62;100.00;101521.50;5089793;28;20085;-39
2024/03/18 00:06:45;;;;;;;7.07;5.40;;;;;;;10.66;100.00;101534.38;5077955;28;20013;-39
2024/03/18 00:09:11;;;;;;;6.03;5.20;;;;;;;10.62;100.00;101519.59;5076223;28;20025;-39
2024/03/18 00:11:36;;;;;;;6.03;4.90;;;;;;;10.68;100.00;101540.38;5076602;28;20020;-39
2024/03/18 00:14:02;;;;;;;6.90;5.70;;;;;;;10.68;100.00;101531.44;5076671;28;20025;-39
2024/03/18 00:16:28;;;;;;;6.15;5.20;;;;;;;10.70;100.00;101545.59;5075981;28;20021;-39
2024/03/18 00:18:54;;;;;;;6.97;5.80;;;;;;;10.71;100.00;101547.25;5075979;28;20028;-39
2024/03/18 00:21:19;;;;;;;7.32;6.57;;;;;;;10.67;100.00;101527.09;5076438;28;20024;-39
2024/03/18 00:23:45;;;;;;;6.75;5.72;;;;;;;10.66;100.00;101533.53;5076775;28;20086;-39
2024/03/18 00:26:10;;;;;;;7.82;7.03;;;;;;;10.69;100.00;101538.53;5075544;28;20016;-39
2024/03/18 00:28:35;;;;;;;7.50;6.70;;;;;;;10.67;100.00;101537.91;5076091;28;20024;-39
2024/03/18 00:31:01;;;;;;;7.13;6.43;;;;;;;10.65;100.00;101526.47;5075792;28;20030;-40
2024/03/18 00:33:26;;;;;;;7.20;6.53;;;;;;;10.69;100.00;101539.38;5075686;28;20765;-39
2024/03/18 00:35:58;;;;;;;6.73;6.13;;;;;;;10.70;100.00;101538.31;5075454;28;20258;-40
2024/03/18 00:38:24;;;;;;;7.13;6.53;;;;;;;10.72;100.00;101532.69;5075960;28;20024;-40
2024/03/18 00:40:56;;;;;;;;;;;;;;;10.78;100.00;101537.22;5076336;28;20365;-39
2024/03/18 00:43:24;;;;;;;8.00;7.20;;;;;;;10.72;100.00;101535.38;5075344;28;20323;-39
2024/03/18 00:45:51;;;;;;;7.45;6.88;;;;;;;10.70;100.00;101532.91;5075551;28;20024;-39
2024/03/18 00:48:16;;;;;;;7.75;7.05;;;;;;;10.71;100.00;101537.25;5075116;28;20485;-39
2024/03/18 00:50:42;;;;;;;8.23;7.35;;;;;;;10.67;100.00;101529.78;5076236;28;20115;-39
2024/03/18 00:53:07;;;;;;;8.70;7.90;;;;;;;10.64;100.00;101516.69;5075385;28;20020;-39
2024/03/18 00:55:36;;;;;;;8.38;7.63;;;;;;;10.70;100.00;101521.25;5076195;28;20464;-39
2024/03/18 00:58:03;;;;;;;7.97;7.38;;;;;;;10.69;100.00;101516.91;5076080;28;20404;-39
2024/03/18 01:00:29;;;;;;;8.23;7.57;;;;;;;10.67;100.00;101518.97;5074995;28;20027;-39
2024/03/18 01:02:54;;;;;;;8.48;7.72;;;;;;;10.68;100.00;101515.22;5075955;28;20099;-39
2024/03/18 01:05:19;;;;;;;9.10;8.20;;;;;;;10.65;100.00;101507.53;5075155;28;20164;-39
2024/03/18 01:07:45;;;;;;;9.97;9.13;;;;;;;10.67;100.00;101508.97;5075090;28;20021;-39
2024/03/18 01:10:11;;;;;;;;;;;;;;;10.77;100.00;101513.91;5075484;28;20798;-39
2024/03/18 01:12:36;;;;;;;8.90;8.10;;;;;;;10.71;100.00;101509.38;5074973;28;19954;-39
2024/03/18 01:15:03;;;;;;;9.55;8.75;;;;;;;10.71;100.00;101514.78;5074895;28;20024;-39
2024/03/18 01:17:28;;;;;;;9.85;8.85;;;;;;;10.65;100.00;101512.97;5073860;28;20031;-39
2024/03/18 01:19:54;;;;;;;10.07;9.18;;;;;;;10.69;100.00;101520.44;5074551;28;20021;-39
2024/03/18 01:22:20;;;;;;;;;;;;;;;10.78;100.00;101518.28;5075145;28;20020;-39
2024/03/18 01:24:46;;;;;;;9.40;8.60;;;;;;;10.71;100.00;101510.22;5074728;28;20010;-39
2024/03/18 01:27:11;;;;;;;10.30;9.40;;;;;;;10.70;100.00;101507.72;5074338;28;20263;-39
2024/03/18 01:29:37;;;;;;;10.03;9.13;;;;;;;10.72;100.00;101511.03;5074646;28;20020;-39
2024/03/18 01:32:02;;;;;;;9.70;8.90;;;;;;;10.72;100.00;101506.44;5074751;28;20267;-39
2024/03/18 01:34:27;;;;;;;10.63;9.25;;;;;;;10.71;100.00;101499.38;5075193;28;20054;-39
2024/03/18 01:36:53;;;;;;;9.90;8.97;;;;;;;10.72;100.00;101498.34;5074773;28;20063;-39
2024/03/18 01:39:19;;;;;;;9.80;9.00;;;;;;;10.74;100.00;101498.13;5074195;28;20243;-39
2024/03/18 01:41:46;;;;;;;10.05;9.05;;;;;;;10.71;100.00;101502.09;5074289;28;20028;-40
2024/03/18 01:44:12;;;;;;;10.55;9.60;;;;;;;10.69;100.00;101490.66;5074846;28;20449;-40
2024/03/18 01:46:37;;;;;;;10.25;9.18;;;;;;;10.74;100.00;101492.72;5073988;28;20021;-38
2024/03/18 01:49:02;;;;;;;10.00;9.10;;;;;;;10.72;100.00;101501.03;5074284;28;20020;-38
2024/03/18 01:51:29;;;;;;;10.10;9.20;;;;;;;10.73;100.00;101493.75;5074197;28;20604;-38
2024/03/18 01:53:54;;;;;;;;;;;;;;;10.80;100.00;101491.84;5074509;28;20310;-38
2024/03/18 01:56:20;;;;;;;9.75;8.75;;;;;;;10.73;100.00;101496.47;5073773;28;19915;-39
2024/03/18 01:58:47;;;;;;;8.88;7.97;;;;;;;10.74;100.00;101492.72;5074604;28;20029;-39
2024/03/18 02:01:13;;;;;;;9.48;8.55;;;;;;;10.72;100.00;101489.41;5074180;28;20017;-39
2024/03/18 02:03:39;;;;;;;9.90;8.93;;;;;;;10.74;100.00;101481.91;5074753;28;20021;-39
2024/03/18 02:06:06;;;;;;;9.45;8.65;;;;;;;10.73;100.00;101474.81;5073800;28;20017;-39
2024/03/18 02:08:32;;;;;;;9.52;8.73;;;;;;;10.74;100.00;101480.03;5074166;28;20047;-39
2024/03/18 02:10:57;;;;;;;9.43;8.50;;;;;;;10.76;100.00;101475.22;5073515;28;20476;-39
2024/03/18 02:13:23;;;;;;;10.60;8.73;;;;;;;10.75;100.00;101470.03;5073990;28;20111;-39
2024/03/18 02:15:48;;;;;;;9.27;8.48;;;;;;;10.72;100.00;101468.59;5073744;28;20281;-39
2024/03/18 02:18:14;;;;;;;9.80;8.87;;;;;;;10.76;100.00;101467.09;5073487;28;20028;-39
2024/03/18 02:20:39;;;;;;;9.10;8.30;;;;;;;10.74;100.00;101468.38;5073785;28;20028;-39
2024/03/18 02:23:05;;;;;;;11.07;9.00;;;;;;;10.67;100.00;101460.28;5073372;28;20350;-39
2024/03/18 02:25:30;;;;;;;9.88;8.88;;;;;;;10.75;100.00;101468.16;5074275;28;20101;-39
2024/03/18 02:27:55;;;;;;;9.60;8.80;;;;;;;10.69;100.00;101460.91;5073891;28;20019;-39
2024/03/18 02:30:21;;;;;;;9.93;8.93;;;;;;;10.74;100.00;101460.28;5073872;28;20282;-39
2024/03/18 02:32:46;;;;;;;10.57;8.95;;;;;;;10.74;100.00;101469.22;5074288;28;20052;-39
2024/03/18 02:35:16;;;;;;;10.02;9.13;;;;;;;10.71;100.00;101466.09;5073262;28;20075;-39
2024/03/18 02:37:45;;;;;;;10.18;9.27;;;;;;;10.70;100.00;101456.34;5073142;28;20016;-39
2024/03/18 02:40:11;;;;;;;10.02;9.13;;;;;;;10.62;100.00;101445.75;5073993;28;20047;-39
2024/03/18 02:42:39;;;;;;;;;;;;;;;10.77;100.00;101459.81;5073887;28;20025;-39
2024/03/18 02:45:12;;;;;;;10.57;9.57;;;;;;;10.68;100.00;101453.00;5073406;28;19904;-39
2024/03/18 02:47:41;;;;;;;9.60;8.70;;;;;;;10.65;100.00;101438.06;5073428;28;20021;-39
2024/03/18 02:50:07;;;;;;;11.05;10.02;;;;;;;10.66;100.00;101437.00;5073089;28;20028;-39
2024/03/18 02:52:35;;;;;;;10.32;9.35;;;;;;;10.61;100.00;101433.28;5073269;28;20495;-39
2024/03/18 02:55:01;;;;;;;11.00;9.95;;;;;;;10.65;100.00;101429.09;5073992;28;20090;-39
2024/03/18 02:57:27;;;;;;;10.57;9.57;;;;;;;10.61;100.00;101430.59;5073080;28;20480;-39
2024/03/18 02:59:52;;;;;;;11.25;10.15;;;;;;;10.64;100.00;101430.13;5073027;28;20255;-39
2024/03/18 03:02:18;;;;;;;11.15;10.05;;;;;;;10.65;100.00;101435.34;5072900;28;20021;-39
2024/03/18 03:04:44;;;;;;;11.00;10.00;;;;;;;10.65;100.00;101431.81;5073516;28;20035;-39
2024/03/18 03:07:10;;;;;;;11.80;9.57;;;;;;;10.63;100.00;101431.19;5073387;28;20021;-39
2024/03/18 03:09:36;;;;;;;10.75;9.85;;;;;;;10.65;100.00;101434.53;5073475;28;20456;-39
2024/03/18 03:12:01;;;;;;;11.60;10.23;;;;;;;10.66;100.00;101425.34;5073151;28;20518;-39
2024/03/18 03:14:26;;;;;;;11.13;10.03;;;;;;;10.60;100.00;101412.69;5073593;28;20024;-39
2024/03/18 03:16:52;;;;;;;11.53;10.07;;;;;;;10.58;100.00;101410.19;5073094;28;20259;-39
2024/03/18 03:19:17;;;;;;;11.52;10.32;;;;;;;10.65;100.00;101423.69;5073947;28;20059;-39
2024/03/18 03:21:43;;;;;;;11.43;10.18;;;;;;;10.63;100.00;101423.06;5073024;28;20032;-39
2024/03/18 03:24:08;;;;;;;11.70;10.68;;;;;;;10.67;100.00;101416.19;5073317;28;20051;-39
2024/03/18 03:26:33;;;;;;;11.93;10.30;;;;;;;10.66;100.00;101425.34;5073311;28;20444;-39
2024/03/18 03:28:59;;;;;;;11.38;10.27;;;;;;;10.69;100.00;101424.94;5073293;28;20251;-39
2024/03/18 03:31:25;;;;;;;13.43;12.13;;;;;;;10.64;100.00;101409.34;5073019;28;20024;-39
2024/03/18 03:33:50;;;;;;;12.10;11.10;;;;;;;10.70;100.00;101415.75;5073272;28;20032;-39
2024/03/18 03:36:15;;;;;;;13.43;12.17;;;;;;;10.70;100.00;101421.16;5072740;28;20304;-39
2024/03/18 03:38:41;;;;;;;14.05;12.65;;;;;;;10.62;100.00;101414.13;5073028;28;20368;-40
2024/03/18 03:41:06;;;;;;;14.90;13.32;;;;;;;10.65;100.00;101413.72;5074068;28;20028;-39
2024/03/18 03:43:31;;;;;;;15.00;13.50;;;;;;;10.69;100.00;101422.22;5076727;28;20028;-39
2024/03/18 03:45:59;;;;;;;14.38;12.98;;;;;;;10.62;100.00;101416.84;5076579;28;20028;-40
2024/03/18 03:48:26;;;;;;;14.95;13.55;;;;;;;10.61;100.00;101417.06;5076806;28;20047;-40
2024/03/18 03:50:53;;;;;;;15.93;14.43;;;;;;;10.62;100.00;101416.00;5077299;28;20032;-40
2024/03/18 03:53:19;;;;;;;15.63;14.05;;;;;;;10.64;100.00;101422.88;5076533;28;20364;-39
2024/03/18 03:55:45;;;;;;;15.77;14.27;;;;;;;10.60;100.00;101418.13;5077109;28;20024;-39
2024/03/18 03:58:12;;;;;;;17.10;15.40;;;;;;;10.56;100.00;101415.84;5076277;28;20028;-39
2024/03/18 04:00:41;;;;;;;;;;;;;;;10.71;100.00;101425.53;5076448;28;20020;-39
2024/03/18 04:03:07;;;;;;;15.75;14.25;;;;;;;10.63;100.00;101431.19;5076789;28;19936;-39
2024/03/18 04:05:32;;;;;;;17.00;15.40;;;;;;;10.63;100.00;101431.19;5076570;28;20063;-39
2024/03/18 04:07:57;;;;;;;17.17;15.50;;;;;;;10.60;100.00;101429.75;5075931;28;20441;-40
2024/03/18 04:10:22;;;;;;;16.07;14.57;;;;;;;10.62;100.00;101435.78;5076526;28;20476;-39
2024/03/18 04:12:48;;;;;;;15.93;14.40;;;;;;;10.61;100.00;101428.72;5076185;28;20051;-40
2024/03/18 04:15:13;;;;;;;15.80;14.27;;;;;;;10.61;100.00;101436.81;5075976;28;20279;-40
2024/03/18 04:17:39;;;;;;;15.93;14.23;;;;;;;10.60;100.00;101431.63;5076018;28;20048;-39
2024/03/18 04:20:18;;;;;;;15.30;13.90;;;;;;;10.60;100.00;101431.63;5076298;28;20056;-40
2024/03/18 04:22:46;;;;;;;14.68;13.27;;;;;;;10.58;100.00;101439.94;5076205;28;20024;-39
2024/03/18 04:25:11;;;;;;;14.85;13.55;;;;;;;10.60;100.00;101443.28;5075872;28;20453;-39
2024/03/18 04:27:37;;;;;;;14.80;13.43;;;;;;;10.62;100.00;101441.19;5075883;28;20035;-40
2024/03/18 04:30:04;;;;;;;14.03;12.73;;;;;;;10.61;100.00;101433.28;5076366;28;20071;-39
2024/03/18 04:32:29;;;;;;;13.15;11.95;;;;;;;10.60;100.00;101439.75;5075721;28;20266;-39
2024/03/18 04:34:54;;;;;;;14.82;12.85;;;;;;;10.63;100.00;101442.00;5076351;28;20028;-39
2024/03/18 04:37:20;;;;;;;12.93;11.73;;;;;;;10.63;100.00;101442.00;5075614;28;20020;-39
2024/03/18 04:39:45;;;;;;;13.87;12.67;;;;;;;10.62;100.00;101445.75;5075933;28;20435;-39
2024/03/18 04:42:10;;;;;;;13.60;12.30;;;;;;;10.61;100.00;101449.50;5075494;28;20032;-39
2024/03/18 04:44:36;;;;;;;12.35;11.25;;;;;;;10.54;100.00;101436.88;5076067;28;20024;-40
2024/03/18 04:47:01;;;;;;;13.47;12.13;;;;;;;10.57;100.00;101444.53;5075610;28;20467;-39
2024/03/18 04:49:26;;;;;;;13.33;11.77;;;;;;;10.58;100.00;101443.47;5074503;28;20020;-39
2024/03/18 04:51:52;;;;;;;13.30;11.97;;;;;;;10.57;100.00;101447.22;5075479;28;20342;-39
2024/03/18 04:54:17;;;;;;;12.55;11.35;;;;;;;10.56;100.00;101452.88;5075297;28;20068;-39
2024/03/18 04:56:43;;;;;;;13.32;12.02;;;;;;;10.55;100.00;101449.34;5075828;28;20056;-39
2024/03/18 04:59:08;;;;;;;13.07;11.77;;;;;;;10.56;100.00;101464.50;5075376;28;20024;-39
2024/03/18 05:01:33;;;;;;;13.50;12.23;;;;;;;10.56;100.00;101464.50;5075499;28;20028;-40
2024/03/18 05:04:00;;;;;;;12.13;11.02;;;;;;;10.46;100.00;101436.28;5075735;28;20078;-39
2024/03/18 05:06:26;;;;;;;13.13;12.02;;;;;;;10.54;100.00;101461.22;5074794;28;20024;-39
2024/03/18 05:08:51;;;;;;;14.27;12.88;;;;;;;10.53;100.00;101458.69;5074766;28;20025;-40
2024/03/18 05:11:16;;;;;;;14.33;12.83;;;;;;;10.52;100.00;101455.16;5074973;28;20100;-39
2024/03/18 05:13:42;;;;;;;13.30;11.93;;;;;;;10.52;100.00;101457.03;5075157;28;20727;-39
2024/03/18 05:16:07;;;;;;;12.77;11.57;;;;;;;10.54;100.00;101472.03;5075397;28;20021;-40
2024/03/18 05:18:32;;;;;;;13.47;12.27;;;;;;;10.48;100.00;101456.63;5074981;28;20024;-41
2024/03/18 05:20:58;;;;;;;14.77;13.10;;;;;;;10.45;100.00;101450.84;5075124;28;20275;-40
2024/03/18 05:23:23;;;;;;;13.20;11.97;;;;;;;10.52;100.00;101462.44;5074796;28;20031;-39
2024/03/18 05:25:50;;;;;;;13.93;11.97;;;;;;;10.51;100.00;101466.22;5074684;28;20053;-40
2024/03/18 05:28:15;;;;;;;13.48;12.27;;;;;;;10.50;100.00;101464.56;5074318;28;20250;-40
2024/03/18 05:30:40;;;;;;;12.48;11.27;;;;;;;10.48;100.00;101462.03;5074313;28;20036;-39
2024/03/18 05:33:06;;;;;;;14.07;12.20;;;;;;;10.50;100.00;101464.56;5074559;28;20198;-39
2024/03/18 05:35:32;;;;;;;14.23;12.73;;;;;;;10.50;100.00;101469.97;5075307;28;20024;-39
2024/03/18 05:37:58;;;;;;;13.05;11.73;;;;;;;10.34;100.00;101443.38;5074208;28;20483;-39
2024/03/18 05:40:24;;;;;;;12.90;11.60;;;;;;;10.48;100.00;101470.16;5074736;28;20036;-39
2024/03/18 05:42:49;;;;;;;14.15;12.65;;;;;;;10.47;100.00;101468.50;5074655;28;20401;-39
2024/03/18 05:45:14;;;;;;;13.27;12.03;;;;;;;10.48;100.00;101459.34;5074929;28;20112;-39
2024/03/18 05:47:40;;;;;;;15.60;12.03;;;;;;;10.44;100.00;101450.03;5074240;28;20267;-39
2024/03/18 05:50:06;;;;;;;13.20;12.00;;;;;;;10.48;100.00;101467.44;5074757;28;20027;-38
2024/03/18 05:52:32;;;;;;;13.27;11.95;;;;;;;10.47;100.00;101462.28;5073702;28;20024;-38
2024/03/18 05:54:57;;;;;;;14.05;12.65;;;;;;;10.48;100.00;101466.63;5074128;28;20076;-39
2024/03/18 05:57:23;;;;;;;13.32;12.13;;;;;;;10.47;100.00;101470.38;5074027;28;20073;-39
2024/03/18 05:59:48;;;;;;;14.40;12.90;;;;;;;10.48;100.00;101462.03;5074054;28;20035;-39
2024/03/18 06:02:13;;;;;;;13.73;12.43;;;;;;;10.48;100.00;101469.34;5074113;28;20263;-39
2024/03/18 06:04:39;;;;;;;14.03;12.77;;;;;;;10.47;100.00;101471.22;5073115;28;20032;-39
2024/03/18 06:07:05;;;;;;;14.53;12.40;;;;;;;10.48;100.00;101470.16;5073545;28;20255;-39
2024/03/18 06:09:30;;;;;;;14.80;12.68;;;;;;;10.45;100.00;101467.91;5073735;28;20058;-38
2024/03/18 06:11:56;;;;;;;14.00;12.70;;;;;;;10.47;100.00;101465.81;5073488;28;20025;-39
2024/03/18 06:14:22;;;;;;;14.45;12.93;;;;;;;10.44;100.00;101471.66;5074092;28;20275;-39
2024/03/18 06:16:47;;;;;;;13.93;12.52;;;;;;;10.48;100.00;101470.16;5073463;28;20031;-38
2024/03/18 06:19:15;;;;;;;13.63;12.43;;;;;;;10.49;100.00;101476.38;5074260;28;20047;-38
2024/03/18 06:21:42;;;;;;;14.77;12.90;;;;;;;10.44;100.00;101466.25;5073645;28;20071;-39
2024/03/18 06:24:17;;;;;;;14.52;13.07;;;;;;;10.48;100.00;101478.28;5074453;28;20025;-38
2024/03/18 06:26:43;;;;;;;14.25;12.48;;;;;;;10.44;100.00;101466.25;5073644;28;20021;-39
2024/03/18 06:29:09;;;;;;;14.05;12.75;;;;;;;10.49;100.00;101474.53;5074420;28;20082;-39
2024/03/18 06:31:34;;;;;;;15.00;13.50;;;;;;;10.48;100.00;101472.84;5073629;28;20063;-39
2024/03/18 06:33:59;;;;;;;15.40;13.83;;;;;;;10.49;100.00;101474.53;5073527;28;20055;-39
2024/03/18 06:36:25;;;;;;;14.60;13.20;;;;;;;10.49;100.00;101479.09;5073461;28;20345;-39
2024/03/18 06:38:50;;;;;;;16.17;14.50;;;;;;;10.48;100.00;101470.16;5074092;28;20016;-39
2024/03/18 06:41:15;;;;;;;15.63;13.60;;;;;;;10.51;100.00;101475.16;5073996;28;20263;-39
2024/03/18 06:43:41;;;;;;;15.13;13.27;;;;;;;10.49;100.00;101481.78;5073778;28;20016;-39
2024/03/18 06:46:09;;;;;;;14.70;13.20;;;;;;;10.48;100.00;101489.09;5073213;28;20070;-39
2024/03/18 06:48:35;;;;;;;14.35;12.85;;;;;;;10.45;100.00;101478.72;5073413;28;20073;-39
2024/03/18 06:51:00;;;;;;;14.88;13.15;;;;;;;10.49;100.00;101485.34;5074224;28;20020;-39
2024/03/18 06:53:25;;;;;;;16.57;14.77;;;;;;;10.50;100.00;101481.59;5073244;28;20036;-39
2024/03/18 06:55:51;;;;;;;15.37;13.47;;;;;;;10.40;100.00;101465.00;5073314;28;20357;-40
2024/03/18 06:58:18;;;;;;;17.65;14.45;;;;;;;10.49;100.00;101484.50;5073384;28;20263;-39
2024/03/18 07:00:44;;;;;;;17.88;14.73;;;;;;;10.48;100.00;101486.38;5073712;28;20425;-39
2024/03/18 07:03:10;;;;;;;18.13;15.70;;;;;;;10.46;100.00;101480.38;5073340;28;20059;-39
2024/03/18 07:05:35;;;;;;;18.70;14.73;;;;;;;10.43;100.00;101471.84;5073804;28;20033;-39
2024/03/18 07:08:00;;;;;;;19.95;16.67;;;;;;;10.41;100.00;101471.25;5074017;28;20028;-39
2024/03/18 07:10:26;;;;;;;17.83;15.93;;;;;;;10.44;100.00;101484.31;5073337;28;20409;-39
2024/03/18 07:12:51;;;;;;;20.97;17.33;;;;;;;10.45;100.00;101478.72;5073454;28;20364;-39
2024/03/18 07:15:17;;;;;;;20.48;17.67;;;;;;;10.44;100.00;101490.59;5073251;28;20274;-39
2024/03/18 07:17:43;;;;;;;21.67;17.23;;;;;;;10.41;100.00;101482.88;5077198;28;20099;-39
2024/03/18 07:20:10;;;;;;;22.20;17.23;;;;;;;10.40;100.00;101485.81;5077189;28;20251;-40
2024/03/18 07:22:37;;;;;;;20.85;16.60;;;;;;;10.41;100.00;101491.00;5076756;28;20111;-39
2024/03/18 07:25:09;;;;;;;24.92;17.58;;;;;;;10.42;100.00;101487.25;5077272;28;20017;-39
2024/03/18 07:27:38;;;;;;;20.70;16.75;;;;;;;10.45;100.00;101494.94;5077218;28;20059;-39
2024/03/18 07:30:05;;;;;;;23.20;17.73;;;;;;;10.39;100.00;101482.25;5077185;28;20024;-40
2024/03/18 07:32:31;;;;;;;21.80;18.17;;;;;;;10.43;100.00;101488.91;5077347;28;20031;-39
2024/03/18 07:34:57;;;;;;;23.42;18.55;;;;;;;10.46;100.00;101491.19;5077260;28;20365;-39
2024/03/18 07:37:23;;;;;;;22.23;17.13;;;;;;;10.47;100.00;101492.84;5076792;28;20027;-39
2024/03/18 07:39:48;;;;;;;26.73;19.08;;;;;;;10.47;100.00;101492.84;5077549;28;20028;-39
2024/03/18 07:42:14;;;;;;;23.67;18.20;;;;;;;10.49;100.00;101495.31;5076917;28;20043;-39
2024/03/18 07:44:40;;;;;;;23.63;19.05;;;;;;;10.53;100.00;101497.38;5076725;28;20028;-39
2024/03/18 07:47:06;;;;;;;22.35;18.58;;;;;;;10.52;100.00;101505.72;5076327;28;20353;-39
2024/03/18 07:49:32;;;;;;;23.20;18.75;;;;;;;10.54;100.00;101506.31;5076572;28;20032;-40
2024/03/18 07:51:58;;;;;;;22.80;19.35;;;;;;;10.53;100.00;101505.50;5076750;28;20039;-39
2024/03/18 07:54:23;;;;;;;21.98;18.55;;;;;;;10.50;100.00;101497.00;5076340;28;20388;-39
2024/03/18 07:56:49;;;;;;;22.83;19.23;;;;;;;10.54;100.00;101512.59;5076757;28;20107;-39
2024/03/18 07:59:14;;;;;;;24.55;18.58;;;;;;;10.57;100.00;101509.44;5076423;28;20259;-39
2024/03/18 08:01:40;;;;;;;24.33;18.73;;;;;;;10.58;100.00;101521.91;5076131;28;20028;-40
2024/03/18 08:04:05;;;;;;;25.33;18.67;;;;;;;10.51;100.00;101510.31;5076585;28;20357;-40
2024/03/18 08:06:31;;;;;;;21.10;17.85;;;;;;;10.50;100.00;101514.06;5075927;28;20261;-39
2024/03/18 08:08:56;;;;;;;22.60;18.05;;;;;;;10.53;100.00;101529.84;5077052;28;20023;-39
2024/03/18 08:11:22;;;;;;;24.50;17.67;;;;;;;10.54;100.00;101526.09;5076170;28;20099;-40
2024/03/18 08:13:47;;;;;;;24.53;17.47;;;;;;;10.57;100.00;101533.78;5076935;28;20021;-40
2024/03/18 08:16:12;;;;;;;21.50;16.10;;;;;;;10.55;100.00;101538.56;5076104;28;20663;-40
2024/03/18 08:18:38;;;;;;;18.40;15.50;;;;;;;10.60;100.00;101537.13;5076395;28;20016;-39
2024/03/18 08:21:03;;;;;;;18.73;14.43;;;;;;;10.60;100.00;101539.81;5076392;28;20274;-40
2024/03/18 08:23:29;;;;;;;19.42;15.13;;;;;;;10.62;100.00;101545.81;5076888;28;20029;-39
2024/03/18 08:25:54;;;;;;;19.42;15.05;;;;;;;10.65;100.00;101543.53;5075801;28;20023;-40
2024/03/18 08:28:19;;;;;;;17.33;13.07;;;;;;;10.67;100.00;101546.00;5075657;28;20021;-39
2024/03/18 08:30:45;;;;;;;18.08;13.57;;;;;;;10.68;100.00;101547.66;5076708;28;20028;-39
2024/03/18 08:33:10;;;;;;;19.47;14.43;;;;;;;10.68;100.00;101547.66;5075833;28;20138;-40
2024/03/18 08:35:38;;;;;;;17.50;13.97;;;;;;;10.68;100.00;101553.06;5075530;28;20837;-37
2024/03/18 08:38:04;;;;;;;20.92;14.35;;;;;;;10.67;100.00;101546.00;5075399;28;20029;-39
2024/03/18 08:40:30;;;;;;;19.63;14.27;;;;;;;10.67;100.00;101546.84;5076521;28;20044;-39
2024/03/18 08:42:55;;;;;;;19.58;13.80;;;;;;;10.70;100.00;101542.91;5075271;28;20063;-39
2024/03/18 08:45:20;;;;;;;20.17;13.70;;;;;;;10.73;100.00;101539.75;5075673;28;20032;-39
2024/03/18 08:47:46;;;;;;;18.27;13.60;;;;;;;10.72;100.00;101543.50;5075515;28;20266;-39
2024/03/18 08:50:11;;;;;;;17.23;12.50;;;;;;;10.73;100.00;101539.75;5076105;28;20598;-39
2024/03/18 08:52:37;;;;;;;18.98;13.15;;;;;;;10.76;100.00;101555.56;5075625;28;20263;-39
2024/03/18 08:55:05;;;;;;;17.77;12.77;;;;;;;10.77;100.00;101554.50;5075792;28;20068;-39
2024/03/18 08:57:31;;;;;;;18.75;12.93;;;;;;;10.79;100.00;101560.53;5074979;28;20080;-39
2024/03/18 08:59:56;;;;;;;17.33;13.05;;;;;;;10.75;100.00;101554.72;5075626;28;20457;-39
2024/03/18 09:02:22;;;;;;;19.48;14.38;;;;;;;10.79;100.00;101555.13;5074936;28;20062;-39
2024/03/18 09:04:47;;;;;;;16.13;12.63;;;;;;;10.88;100.00;101570.06;5075205;28;20028;-39
2024/03/18 09:07:12;;;;;;;19.92;12.43;;;;;;;10.89;100.00;101563.63;5075680;28;20115;-39
2024/03/18 09:09:38;;;;;;;15.80;12.32;;;;;;;10.87;100.00;101571.09;5075403;28;20028;-39
2024/03/18 09:12:03;;;;;;;16.80;12.30;;;;;;;10.91;100.00;101560.69;5075131;28;20112;-39
2024/03/18 09:14:29;;;;;;;16.33;13.25;;;;;;;10.87;100.00;101554.88;5074945;28;20277;-39
2024/03/18 09:16:55;;;;;;;16.35;12.95;;;;;;;10.81;100.00;101543.03;5074670;28;20028;-39
2024/03/18 09:19:21;;;;;;;16.73;13.68;;;;;;;10.87;100.00;101559.44;5075205;28;20024;-39
2024/03/18 09:21:47;;;;;;;;;;;;;;;11.05;100.00;101563.09;5074017;28;20103;-38
2024/03/18 09:24:13;;;;;;;20.73;14.07;;;;;;;11.03;100.00;101562.50;5075110;28;20310;-38
2024/03/18 09:26:39;;;;;;;18.55;14.50;;;;;;;11.11;100.00;101566.81;5074732;28;20029;-38
2024/03/18 09:29:04;;;;;;;17.98;13.07;;;;;;;11.12;100.00;101565.75;5075301;28;20444;-38
2024/03/18 09:31:30;;;;;;;18.25;14.32;;;;;;;11.19;100.00;101573.88;5074362;28;20464;-38
2024/03/18 09:33:55;;;;;;;17.17;13.13;;;;;;;11.16;100.00;101561.59;5075005;28;20067;-39
2024/03/18 09:36:20;;;;;;;15.20;12.50;;;;;;;11.11;100.00;101553.28;5074482;28;20052;-38
2024/03/18 09:38:46;;;;;;;21.08;14.63;;;;;;;11.18;100.00;101567.63;5073433;28;20016;-38
2024/03/18 09:41:17;;;;;;;18.07;13.07;;;;;;;11.22;100.00;101570.72;5074527;28;20024;-39
2024/03/18 09:43:44;;;;;;;15.52;13.48;;;;;;;11.13;100.00;101563.91;5074877;28;20078;-39
2024/03/18 09:46:11;;;;;;;20.77;13.88;;;;;;;11.16;100.00;101572.41;5074322;28;20055;-39
2024/03/18 09:48:37;;;;;;;17.92;13.90;;;;;;;11.16;100.00;101564.28;5074558;28;20132;-39
2024/03/18 09:51:03;;;;;;;15.75;13.48;;;;;;;11.24;100.00;101574.03;5074330;28;20055;-39
2024/03/18 09:53:31;;;;;;;20.33;14.95;;;;;;;11.25;100.00;101565.69;5074250;28;20384;-39
2024/03/18 09:55:57;;;;;;;20.52;14.02;;;;;;;11.25;100.00;101562.16;5074343;28;20024;-39
2024/03/18 09:58:22;;;;;;;17.75;13.25;;;;;;;11.36;100.00;101572.28;5074141;28;20540;-40
2024/03/18 10:00:48;;;;;;;20.67;14.07;;;;;;;11.45;100.00;101576.41;5074687;28;20050;-39
2024/03/18 10:03:15;;;;;;;18.02;13.70;;;;;;;11.49;100.00;101583.03;5074334;28;20165;-39
2024/03/18 10:05:42;;;;;;;19.08;13.50;;;;;;;11.57;100.00;101585.50;5074311;28;20039;-39
2024/03/18 10:08:08;;;;;;;17.88;13.55;;;;;;;11.66;100.00;101587.91;5074394;28;20048;-39
2024/03/18 10:10:34;;;;;;;20.95;13.88;;;;;;;11.77;100.00;101574.50;5074438;28;20032;-39
2024/03/18 10:12:59;;;;;;;19.73;13.75;;;;;;;12.01;100.00;101588.31;5074470;28;20508;-39
2024/03/18 10:15:27;;;;;;;18.58;13.95;;;;;;;12.04;100.00;101579.72;5073770;28;20368;-39
2024/03/18 10:17:53;;;;;;;16.88;12.20;;;;;;;11.98;100.00;101581.44;5074320;28;20034;-39
2024/03/18 10:20:20;;;;;;;18.10;12.88;;;;;;;12.16;100.00;101587.97;5073558;28;20194;-39
2024/03/18 10:22:51;;;;;;;17.80;12.55;;;;;;;12.42;100.00;101576.00;5073660;28;20024;-39
2024/03/18 10:25:21;;;;;;;16.27;11.65;;;;;;;12.72;100.00;101586.91;5073374;28;20028;-39
2024/03/18 10:27:48;;;;;;;17.98;11.02;;;;;;;12.85;100.00;101586.78;5074148;28;20028;-39
2024/03/18 10:30:14;;;;;;;17.20;10.63;;;;;;;12.83;100.00;101581.56;5073605;28;20029;-39
2024/03/18 10:32:43;;;;;;;;;;;;;;;13.02;100.00;101576.09;5073597;28;20056;-39
2024/03/18 10:35:25;;;;;;;16.30;11.50;;;;;;;13.17;100.00;101576.50;5073160;28;20363;-39
2024/03/18 10:38:17;;;;;;;16.15;10.23;;;;;;;13.42;100.00;101592.72;5074025;28;20436;-39
2024/03/18 10:40:47;;;;;;;16.80;10.13;;;;;;;13.45;100.00;101583.25;5073673;28;20139;-40
2024/03/18 10:43:13;;;;;;;16.25;8.65;;;;;;;13.50;100.00;101581.50;5073425;28;20028;-40
2024/03/18 10:45:48;;;;;;;12.02;7.30;;;;;;;13.58;100.00;101593.94;5073493;28;20027;-40
2024/03/18 10:48:16;;;;;;;13.88;9.02;;;;;;;13.45;100.00;101594.13;5074263;28;20103;-39
2024/03/18 10:50:44;;;;;;;12.13;8.63;;;;;;;13.32;100.00;101592.41;5073549;28;20085;-40
2024/03/18 10:53:22;;;;;;;14.02;9.32;;;;;;;13.30;100.00;101594.56;5073263;28;20031;-39
2024/03/18 10:55:54;;;;;;;18.02;9.40;;;;;;;13.27;100.00;101600.44;5073859;28;20067;-39
2024/03/18 10:58:21;;;;;;;14.77;8.43;;;;;;;13.34;100.00;101603.91;5072883;28;20138;-40
2024/03/18 11:00:47;;;;;;;14.63;8.48;;;;;;;13.37;100.00;101600.69;5073478;28;20029;-40
2024/03/18 11:03:18;;;;;;;13.55;7.75;;;;;;;13.38;100.00;101596.94;5073269;28;20118;-40